sensor_id;sensor_type;location;lat;lon;timestamp;temperature;humidity
49729;DHT22;35617;50.714;7.114;2022-10-17T00:01:12;17.50;99.90
49729;DHT22;35617;50.714;7.114;2022-10-17T00:03:38;17.50;99.90
49729;DHT22;35617;50.714;7.114;2022-10-17T00:06:06;17.50;99.90
49729;DHT22;35617;50.714;7.114;2022-10-17T00:08:32;17.60;99.90
49729;DHT22;35617;50.714;7.114;2022-10-17T00:11:01;17.60;99.90
49729;DHT22;35617;50.714;7.114;2022-10-17T00:13:28;17.60;99.90
49729;DHT22;35617;50.714;7.114;2022-10-17T00:15:53;17.60;99.90
49729;DHT22;35617;50.714;7.114;2022-10-17T00:18:19;17.60;99.90
49729;DHT22;35617;50.714;7.114;2022-10-17T00:20:45;17.60;99.90
49729;DHT22;35617;50.714;7.114;2022-10-17T00:23:10;17.70;99.90
49729;DHT22;35617;50.714;7.114;2022-10-17T00:25:36;17.70;99.90
49729;DHT22;35617;50.714;7.114;2022-10-17T00:28:02;17.70;99.90
49729;DHT22;35617;50.714;7.114;2022-10-17T00:30:28;17.70;99.90
49729;DHT22;35617;50.714;7.114;2022-10-17T00:32:53;17.70;99.90
49729;DHT22;35617;50.714;7.114;2022-10-17T00:35:19;17.70;99.90
49729;DHT22;35617;50.714;7.114;2022-10-17T00:37:45;17.80;99.90
49729;DHT22;35617;50.714;7.114;2022-10-17T00:40:11;17.70;99.90
49729;DHT22;35617;50.714;7.114;2022-10-17T00:42:37;17.70;99.90
49729;DHT22;35617;50.714;7.114;2022-10-17T00:45:05;17.80;99.90
49729;DHT22;35617;50.714;7.114;2022-10-17T00:47:32;17.70;99.90
49729;DHT22;35617;50.714;7.114;2022-10-17T00:49:58;17.80;99.90
49729;DHT22;35617;50.714;7.114;2022-10-17T00:52:26;17.70;99.90
49729;DHT22;35617;50.714;7.114;2022-10-17T00:55:23;17.70;99.90
49729;DHT22;35617;50.714;7.114;2022-10-17T00:57:50;17.70;99.90
49729;DHT22;35617;50.714;7.114;2022-10-17T01:00:17;17.60;99.90
49729;DHT22;35617;50.714;7.114;2022-10-17T01:02:44;17.60;99.90
49729;DHT22;35617;50.714;7.114;2022-10-17T01:05:09;17.50;99.90
49729;DHT22;35617;50.714;7.114;2022-10-17T01:07:37;17.50;99.90
49729;DHT22;35617;50.714;7.114;2022-10-17T01:10:04;17.50;99.90
49729;DHT22;35617;50.714;7.114;2022-10-17T01:12:51;17.40;99.90
49729;DHT22;35617;50.714;7.114;2022-10-17T01:18:18;17.40;99.90
49729;DHT22;35617;50.714;7.114;2022-10-17T01:20:59;17.40;99.90
49729;DHT22;35617;50.714;7.114;2022-10-17T01:29:07;17.30;99.90
49729;DHT22;35617;50.714;7.114;2022-10-17T01:34:36;17.30;99.90
49729;DHT22;35617;50.714;7.114;2022-10-17T01:37:18;17.30;99.90
49729;DHT22;35617;50.714;7.114;2022-10-17T01:40:01;17.20;99.90
49729;DHT22;35617;50.714;7.114;2022-10-17T01:42:37;17.20;99.90
49729;DHT22;35617;50.714;7.114;2022-10-17T01:47:37;17.20;99.90
49729;DHT22;35617;50.714;7.114;2022-10-17T01:50:14;17.20;99.90
49729;DHT22;35617;50.714;7.114;2022-10-17T01:52:45;17.20;99.90
49729;DHT22;35617;50.714;7.114;2022-10-17T01:55:22;17.20;99.90
49729;DHT22;35617;50.714;7.114;2022-10-17T01:58:14;17.20;99.90
49729;DHT22;35617;50.714;7.114;2022-10-17T02:00:43;17.20;99.90
49729;DHT22;35617;50.714;7.114;2022-10-17T02:03:14;17.30;99.90
49729;DHT22;35617;50.714;7.114;2022-10-17T02:05:43;17.30;99.90
49729;DHT22;35617;50.714;7.114;2022-10-17T02:08:09;17.30;99.90
49729;DHT22;35617;50.714;7.114;2022-10-17T02:13:26;17.40;99.90
49729;DHT22;35617;50.714;7.114;2022-10-17T02:16:19;17.30;99.90
49729;DHT22;35617;50.714;7.114;2022-10-17T02:24:14;17.40;99.90
49729;DHT22;35617;50.714;7.114;2022-10-17T02:29:20;17.40;99.90
49729;DHT22;35617;50.714;7.114;2022-10-17T02:31:59;17.40;99.90
49729;DHT22;35617;50.714;7.114;2022-10-17T02:34:31;17.40;99.90
49729;DHT22;35617;50.714;7.114;2022-10-17T02:37:01;17.40;99.90
49729;DHT22;35617;50.714;7.114;2022-10-17T02:39:29;17.40;99.90
49729;DHT22;35617;50.714;7.114;2022-10-17T02:41:58;17.40;99.90
49729;DHT22;35617;50.714;7.114;2022-10-17T02:44:25;17.40;99.90
49729;DHT22;35617;50.714;7.114;2022-10-17T02:47:00;17.40;99.90
49729;DHT22;35617;50.714;7.114;2022-10-17T02:49:30;17.40;99.90
49729;DHT22;35617;50.714;7.114;2022-10-17T02:52:09;17.40;99.90
49729;DHT22;35617;50.714;7.114;2022-10-17T02:54:50;17.40;99.90
49729;DHT22;35617;50.714;7.114;2022-10-17T02:57:34;17.40;99.90
49729;DHT22;35617;50.714;7.114;2022-10-17T03:00:02;17.40;99.90
49729;DHT22;35617;50.714;7.114;2022-10-17T03:02:38;17.40;99.90
49729;DHT22;35617;50.714;7.114;2022-10-17T03:05:04;17.40;99.90
49729;DHT22;35617;50.714;7.114;2022-10-17T03:07:29;17.40;99.90
49729;DHT22;35617;50.714;7.114;2022-10-17T03:09:55;17.40;99.90
49729;DHT22;35617;50.714;7.114;2022-10-17T03:12:20;17.40;99.90
49729;DHT22;35617;50.714;7.114;2022-10-17T03:14:46;17.40;99.90
49729;DHT22;35617;50.714;7.114;2022-10-17T03:17:11;17.40;99.90
49729;DHT22;35617;50.714;7.114;2022-10-17T03:19:37;17.40;99.90
49729;DHT22;35617;50.714;7.114;2022-10-17T03:22:02;17.40;99.90
49729;DHT22;35617;50.714;7.114;2022-10-17T03:24:28;17.40;99.90
49729;DHT22;35617;50.714;7.114;2022-10-17T03:26:53;17.40;99.90
49729;DHT22;35617;50.714;7.114;2022-10-17T03:29:19;17.40;99.90
49729;DHT22;35617;50.714;7.114;2022-10-17T03:31:44;17.40;99.90
49729;DHT22;35617;50.714;7.114;2022-10-17T03:34:10;17.40;99.90
49729;DHT22;35617;50.714;7.114;2022-10-17T03:36:36;17.40;99.90
49729;DHT22;35617;50.714;7.114;2022-10-17T03:39:02;17.40;99.90
49729;DHT22;35617;50.714;7.114;2022-10-17T03:41:27;17.40;99.90
49729;DHT22;35617;50.714;7.114;2022-10-17T03:43:53;17.30;99.90
49729;DHT22;35617;50.714;7.114;2022-10-17T03:46:19;17.30;99.90
49729;DHT22;35617;50.714;7.114;2022-10-17T03:48:44;17.30;99.90
49729;DHT22;35617;50.714;7.114;2022-10-17T03:51:10;17.30;99.90
49729;DHT22;35617;50.714;7.114;2022-10-17T03:53:36;17.30;99.90
49729;DHT22;35617;50.714;7.114;2022-10-17T03:56:19;17.30;99.90
49729;DHT22;35617;50.714;7.114;2022-10-17T03:58:45;17.30;99.90
49729;DHT22;35617;50.714;7.114;2022-10-17T04:01:12;17.20;99.90
49729;DHT22;35617;50.714;7.114;2022-10-17T04:03:38;17.20;99.90
49729;DHT22;35617;50.714;7.114;2022-10-17T04:06:05;17.20;99.90
49729;DHT22;35617;50.714;7.114;2022-10-17T04:08:32;17.20;99.90
49729;DHT22;35617;50.714;7.114;2022-10-17T04:11:02;17.20;99.90
49729;DHT22;35617;50.714;7.114;2022-10-17T04:13:28;17.20;99.90
49729;DHT22;35617;50.714;7.114;2022-10-17T04:16:00;17.20;99.90
49729;DHT22;35617;50.714;7.114;2022-10-17T04:18:26;17.20;99.90
49729;DHT22;35617;50.714;7.114;2022-10-17T04:20:51;17.10;99.90
49729;DHT22;35617;50.714;7.114;2022-10-17T04:23:17;17.10;99.90
49729;DHT22;35617;50.714;7.114;2022-10-17T04:25:43;17.20;99.90
49729;DHT22;35617;50.714;7.114;2022-10-17T04:28:09;17.20;99.90
49729;DHT22;35617;50.714;7.114;2022-10-17T04:30:34;17.20;99.90
49729;DHT22;35617;50.714;7.114;2022-10-17T04:33:00;17.20;99.90
49729;DHT22;35617;50.714;7.114;2022-10-17T04:35:25;17.20;99.90
49729;DHT22;35617;50.714;7.114;2022-10-17T04:37:51;17.20;99.90
49729;DHT22;35617;50.714;7.114;2022-10-17T04:40:16;17.20;99.90
49729;DHT22;35617;50.714;7.114;2022-10-17T04:42:42;17.20;99.90
49729;DHT22;35617;50.714;7.114;2022-10-17T04:45:08;17.20;99.90
49729;DHT22;35617;50.714;7.114;2022-10-17T04:47:34;17.20;99.90
49729;DHT22;35617;50.714;7.114;2022-10-17T04:49:59;17.10;99.90
49729;DHT22;35617;50.714;7.114;2022-10-17T04:52:25;17.10;99.90
49729;DHT22;35617;50.714;7.114;2022-10-17T04:54:51;17.10;99.90
49729;DHT22;35617;50.714;7.114;2022-10-17T04:57:17;17.10;99.90
49729;DHT22;35617;50.714;7.114;2022-10-17T04:59:43;17.10;99.90
49729;DHT22;35617;50.714;7.114;2022-10-17T05:02:11;17.10;99.90
49729;DHT22;35617;50.714;7.114;2022-10-17T05:04:36;17.10;99.90
49729;DHT22;35617;50.714;7.114;2022-10-17T05:07:02;17.00;99.90
49729;DHT22;35617;50.714;7.114;2022-10-17T05:09:28;17.00;99.90
49729;DHT22;35617;50.714;7.114;2022-10-17T05:11:54;17.00;99.90
49729;DHT22;35617;50.714;7.114;2022-10-17T05:14:19;17.00;99.90
49729;DHT22;35617;50.714;7.114;2022-10-17T05:16:45;17.00;99.90
49729;DHT22;35617;50.714;7.114;2022-10-17T05:19:11;17.00;99.90
49729;DHT22;35617;50.714;7.114;2022-10-17T05:21:36;17.00;99.90
49729;DHT22;35617;50.714;7.114;2022-10-17T05:24:06;17.00;99.90
49729;DHT22;35617;50.714;7.114;2022-10-17T05:26:32;17.00;99.90
49729;DHT22;35617;50.714;7.114;2022-10-17T05:28:59;17.00;99.90
49729;DHT22;35617;50.714;7.114;2022-10-17T05:31:27;17.00;99.90
49729;DHT22;35617;50.714;7.114;2022-10-17T05:33:53;17.00;99.90
49729;DHT22;35617;50.714;7.114;2022-10-17T05:36:19;16.90;99.90
49729;DHT22;35617;50.714;7.114;2022-10-17T05:38:49;17.00;99.90
49729;DHT22;35617;50.714;7.114;2022-10-17T05:41:15;17.00;99.90
49729;DHT22;35617;50.714;7.114;2022-10-17T05:43:41;17.00;99.90
49729;DHT22;35617;50.714;7.114;2022-10-17T05:46:06;17.00;99.90
49729;DHT22;35617;50.714;7.114;2022-10-17T05:48:33;17.00;99.90
49729;DHT22;35617;50.714;7.114;2022-10-17T05:51:04;17.00;99.90
49729;DHT22;35617;50.714;7.114;2022-10-17T05:53:33;17.00;99.90
49729;DHT22;35617;50.714;7.114;2022-10-17T05:56:00;16.90;99.90
49729;DHT22;35617;50.714;7.114;2022-10-17T05:58:26;16.90;99.90
49729;DHT22;35617;50.714;7.114;2022-10-17T06:00:57;16.90;99.90
49729;DHT22;35617;50.714;7.114;2022-10-17T06:03:23;16.90;99.90
49729;DHT22;35617;50.714;7.114;2022-10-17T06:05:48;16.90;99.90
49729;DHT22;35617;50.714;7.114;2022-10-17T06:08:14;16.80;99.90
49729;DHT22;35617;50.714;7.114;2022-10-17T06:10:39;16.80;99.90
49729;DHT22;35617;50.714;7.114;2022-10-17T06:13:05;16.80;99.90
49729;DHT22;35617;50.714;7.114;2022-10-17T06:15:30;16.90;99.90
49729;DHT22;35617;50.714;7.114;2022-10-17T06:17:56;16.80;99.90
49729;DHT22;35617;50.714;7.114;2022-10-17T06:20:21;16.90;99.90
49729;DHT22;35617;50.714;7.114;2022-10-17T06:22:47;16.90;99.90
49729;DHT22;35617;50.714;7.114;2022-10-17T06:25:12;16.90;99.90
49729;DHT22;35617;50.714;7.114;2022-10-17T06:27:39;16.90;99.90
49729;DHT22;35617;50.714;7.114;2022-10-17T06:30:05;17.00;99.90
49729;DHT22;35617;50.714;7.114;2022-10-17T06:32:30;17.00;99.90
49729;DHT22;35617;50.714;7.114;2022-10-17T06:34:56;17.00;99.90
49729;DHT22;35617;50.714;7.114;2022-10-17T06:37:21;17.00;99.90
49729;DHT22;35617;50.714;7.114;2022-10-17T06:39:47;17.00;99.90
49729;DHT22;35617;50.714;7.114;2022-10-17T06:42:12;17.00;99.90
49729;DHT22;35617;50.714;7.114;2022-10-17T06:44:38;17.00;99.90
49729;DHT22;35617;50.714;7.114;2022-10-17T06:47:05;17.00;99.90
49729;DHT22;35617;50.714;7.114;2022-10-17T06:49:30;17.10;99.90
49729;DHT22;35617;50.714;7.114;2022-10-17T06:51:59;17.10;99.90
49729;DHT22;35617;50.714;7.114;2022-10-17T06:54:24;17.10;99.90
49729;DHT22;35617;50.714;7.114;2022-10-17T06:56:50;17.10;99.90
49729;DHT22;35617;50.714;7.114;2022-10-17T06:59:15;17.20;99.90
49729;DHT22;35617;50.714;7.114;2022-10-17T07:01:41;17.20;99.90
49729;DHT22;35617;50.714;7.114;2022-10-17T07:04:07;17.30;99.90
49729;DHT22;35617;50.714;7.114;2022-10-17T07:06:33;17.30;99.90
49729;DHT22;35617;50.714;7.114;2022-10-17T07:08:58;17.40;99.90
49729;DHT22;35617;50.714;7.114;2022-10-17T07:11:25;17.50;99.90
49729;DHT22;35617;50.714;7.114;2022-10-17T07:13:51;17.60;99.90
49729;DHT22;35617;50.714;7.114;2022-10-17T07:16:16;17.60;99.90
49729;DHT22;35617;50.714;7.114;2022-10-17T07:18:42;17.70;99.90
49729;DHT22;35617;50.714;7.114;2022-10-17T07:21:08;17.80;99.90
49729;DHT22;35617;50.714;7.114;2022-10-17T07:23:34;17.80;99.90
49729;DHT22;35617;50.714;7.114;2022-10-17T07:26:04;17.90;99.90
49729;DHT22;35617;50.714;7.114;2022-10-17T07:28:34;18.00;99.90
49729;DHT22;35617;50.714;7.114;2022-10-17T07:31:14;18.00;99.90
49729;DHT22;35617;50.714;7.114;2022-10-17T07:33:41;18.00;99.90
49729;DHT22;35617;50.714;7.114;2022-10-17T07:36:07;18.00;99.90
49729;DHT22;35617;50.714;7.114;2022-10-17T07:38:33;18.00;99.90
49729;DHT22;35617;50.714;7.114;2022-10-17T07:41:03;18.10;99.90
49729;DHT22;35617;50.714;7.114;2022-10-17T07:43:30;18.10;99.90
49729;DHT22;35617;50.714;7.114;2022-10-17T07:45:56;18.10;99.90
49729;DHT22;35617;50.714;7.114;2022-10-17T07:48:23;18.10;99.90
49729;DHT22;35617;50.714;7.114;2022-10-17T07:50:49;18.10;99.90
49729;DHT22;35617;50.714;7.114;2022-10-17T07:53:15;18.20;99.90
49729;DHT22;35617;50.714;7.114;2022-10-17T07:55:41;18.20;99.90
49729;DHT22;35617;50.714;7.114;2022-10-17T07:58:08;18.20;99.90
49729;DHT22;35617;50.714;7.114;2022-10-17T08:00:34;18.30;99.90
49729;DHT22;35617;50.714;7.114;2022-10-17T08:03:00;18.30;99.90
49729;DHT22;35617;50.714;7.114;2022-10-17T08:05:26;18.30;99.90
49729;DHT22;35617;50.714;7.114;2022-10-17T08:07:51;18.40;99.90
49729;DHT22;35617;50.714;7.114;2022-10-17T08:10:17;18.40;99.90
49729;DHT22;35617;50.714;7.114;2022-10-17T08:12:43;18.40;99.90
49729;DHT22;35617;50.714;7.114;2022-10-17T08:15:09;18.50;99.90
49729;DHT22;35617;50.714;7.114;2022-10-17T08:17:36;18.60;99.90
49729;DHT22;35617;50.714;7.114;2022-10-17T08:20:03;18.60;99.90
49729;DHT22;35617;50.714;7.114;2022-10-17T08:22:30;18.70;99.90
49729;DHT22;35617;50.714;7.114;2022-10-17T08:24:55;18.80;99.90
49729;DHT22;35617;50.714;7.114;2022-10-17T08:27:21;18.90;99.90
49729;DHT22;35617;50.714;7.114;2022-10-17T08:29:50;19.00;99.90
49729;DHT22;35617;50.714;7.114;2022-10-17T08:32:23;19.10;99.90
49729;DHT22;35617;50.714;7.114;2022-10-17T08:34:51;19.20;99.90
49729;DHT22;35617;50.714;7.114;2022-10-17T08:37:17;19.20;99.90
49729;DHT22;35617;50.714;7.114;2022-10-17T08:39:43;19.30;99.90
49729;DHT22;35617;50.714;7.114;2022-10-17T08:48:00;19.50;99.90
49729;DHT22;35617;50.714;7.114;2022-10-17T08:50:36;19.50;99.90
49729;DHT22;35617;50.714;7.114;2022-10-17T08:55:45;19.60;99.90
49729;DHT22;35617;50.714;7.114;2022-10-17T09:01:31;19.70;99.90
49729;DHT22;35617;50.714;7.114;2022-10-17T09:06:39;19.80;99.90
49729;DHT22;35617;50.714;7.114;2022-10-17T09:17:48;20.10;99.90
49729;DHT22;35617;50.714;7.114;2022-10-17T09:20:52;20.20;99.90
49729;DHT22;35617;50.714;7.114;2022-10-17T09:23:30;20.30;99.90
49729;DHT22;35617;50.714;7.114;2022-10-17T09:26:00;20.60;99.90
49729;DHT22;35617;50.714;7.114;2022-10-17T09:28:37;20.80;99.90
49729;DHT22;35617;50.714;7.114;2022-10-17T09:31:23;20.90;99.90
49729;DHT22;35617;50.714;7.114;2022-10-17T09:36:35;21.20;99.90
49729;DHT22;35617;50.714;7.114;2022-10-17T09:39:17;21.40;99.90
49729;DHT22;35617;50.714;7.114;2022-10-17T09:41:54;21.50;99.90
49729;DHT22;35617;50.714;7.114;2022-10-17T09:44:31;21.60;99.90
49729;DHT22;35617;50.714;7.114;2022-10-17T09:49:37;21.80;99.90
49729;DHT22;35617;50.714;7.114;2022-10-17T09:52:05;21.90;99.90
49729;DHT22;35617;50.714;7.114;2022-10-17T09:54:46;21.90;99.90
49729;DHT22;35617;50.714;7.114;2022-10-17T09:57:13;22.00;99.90
49729;DHT22;35617;50.714;7.114;2022-10-17T09:59:45;22.00;99.90
49729;DHT22;35617;50.714;7.114;2022-10-17T10:07:15;22.20;99.90
49729;DHT22;35617;50.714;7.114;2022-10-17T10:09:46;22.30;99.90
49729;DHT22;35617;50.714;7.114;2022-10-17T10:12:28;22.40;99.90
49729;DHT22;35617;50.714;7.114;2022-10-17T10:14:55;22.50;99.90
49729;DHT22;35617;50.714;7.114;2022-10-17T10:17:36;22.60;99.80
49729;DHT22;35617;50.714;7.114;2022-10-17T10:20:29;22.70;99.60
49729;DHT22;35617;50.714;7.114;2022-10-17T10:23:16;22.80;99.40
49729;DHT22;35617;50.714;7.114;2022-10-17T10:25:57;22.80;98.90
49729;DHT22;35617;50.714;7.114;2022-10-17T10:28:29;22.90;99.20
49729;DHT22;35617;50.714;7.114;2022-10-17T10:30:59;23.00;98.90
49729;DHT22;35617;50.714;7.114;2022-10-17T10:33:27;23.00;98.80
49729;DHT22;35617;50.714;7.114;2022-10-17T10:36:04;23.10;98.60
49729;DHT22;35617;50.714;7.114;2022-10-17T10:41:03;23.30;99.90
49729;DHT22;35617;50.714;7.114;2022-10-17T10:43:44;23.40;99.90
49729;DHT22;35617;50.714;7.114;2022-10-17T10:46:27;23.40;99.90
49729;DHT22;35617;50.714;7.114;2022-10-17T10:49:02;23.50;99.60
49729;DHT22;35617;50.714;7.114;2022-10-17T10:51:38;23.50;99.30
49729;DHT22;35617;50.714;7.114;2022-10-17T10:54:22;23.50;99.20
49729;DHT22;35617;50.714;7.114;2022-10-17T10:56:51;23.50;99.10
49729;DHT22;35617;50.714;7.114;2022-10-17T10:59:49;23.60;98.90
49729;DHT22;35617;50.714;7.114;2022-10-17T11:02:32;23.70;98.70
49729;DHT22;35617;50.714;7.114;2022-10-17T11:05:17;23.70;98.50
49729;DHT22;35617;50.714;7.114;2022-10-17T11:13:26;23.90;98.70
49729;DHT22;35617;50.714;7.114;2022-10-17T11:16:25;24.00;98.40
49729;DHT22;35617;50.714;7.114;2022-10-17T11:24:24;23.90;97.60
49729;DHT22;35617;50.714;7.114;2022-10-17T11:27:00;23.90;97.50
49729;DHT22;35617;50.714;7.114;2022-10-17T11:29:32;23.90;97.70
49729;DHT22;35617;50.714;7.114;2022-10-17T11:32:03;23.90;97.40
49729;DHT22;35617;50.714;7.114;2022-10-17T11:34:34;23.90;97.30
49729;DHT22;35617;50.714;7.114;2022-10-17T11:37:24;24.00;97.20
49729;DHT22;35617;50.714;7.114;2022-10-17T11:40:01;24.00;97.10
49729;DHT22;35617;50.714;7.114;2022-10-17T11:42:38;24.00;97.10
49729;DHT22;35617;50.714;7.114;2022-10-17T11:45:10;24.00;97.20
49729;DHT22;35617;50.714;7.114;2022-10-17T11:47:44;23.90;97.00
49729;DHT22;35617;50.714;7.114;2022-10-17T11:50:29;23.90;97.10
49729;DHT22;35617;50.714;7.114;2022-10-17T11:53:04;23.80;97.10
49729;DHT22;35617;50.714;7.114;2022-10-17T11:55:31;23.70;97.00
49729;DHT22;35617;50.714;7.114;2022-10-17T12:11:58;23.70;96.80
49729;DHT22;35617;50.714;7.114;2022-10-17T12:16:59;23.70;96.70
49729;DHT22;35617;50.714;7.114;2022-10-17T12:19:27;23.70;96.70
49729;DHT22;35617;50.714;7.114;2022-10-17T12:27:22;23.60;97.00
49729;DHT22;35617;50.714;7.114;2022-10-17T12:29:48;23.50;96.90
49729;DHT22;35617;50.714;7.114;2022-10-17T12:32:15;23.50;97.10
49729;DHT22;35617;50.714;7.114;2022-10-17T12:34:53;23.50;97.10
49729;DHT22;35617;50.714;7.114;2022-10-17T12:45:58;23.50;97.10
49729;DHT22;35617;50.714;7.114;2022-10-17T12:51:09;23.50;97.10
49729;DHT22;35617;50.714;7.114;2022-10-17T12:53:54;23.50;97.20
49729;DHT22;35617;50.714;7.114;2022-10-17T12:56:38;23.40;97.20
49729;DHT22;35617;50.714;7.114;2022-10-17T12:59:27;23.40;97.30
49729;DHT22;35617;50.714;7.114;2022-10-17T13:02:00;23.40;97.30
49729;DHT22;35617;50.714;7.114;2022-10-17T13:04:28;23.40;98.00
49729;DHT22;35617;50.714;7.114;2022-10-17T13:06:56;23.40;98.50
49729;DHT22;35617;50.714;7.114;2022-10-17T13:09:28;23.40;98.60
49729;DHT22;35617;50.714;7.114;2022-10-17T13:11:55;23.40;98.60
49729;DHT22;35617;50.714;7.114;2022-10-17T13:14:22;23.40;98.50
49729;DHT22;35617;50.714;7.114;2022-10-17T13:16:57;23.30;97.80
49729;DHT22;35617;50.714;7.114;2022-10-17T13:19:30;23.30;97.90
49729;DHT22;35617;50.714;7.114;2022-10-17T13:21:58;23.30;97.80
49729;DHT22;35617;50.714;7.114;2022-10-17T13:24:39;23.30;99.40
49729;DHT22;35617;50.714;7.114;2022-10-17T13:27:19;23.30;99.90
49729;DHT22;35617;50.714;7.114;2022-10-17T13:29:45;23.20;99.90
49729;DHT22;35617;50.714;7.114;2022-10-17T13:32:11;23.20;99.60
49729;DHT22;35617;50.714;7.114;2022-10-17T13:34:37;23.10;99.90
49729;DHT22;35617;50.714;7.114;2022-10-17T13:37:09;23.10;99.90
49729;DHT22;35617;50.714;7.114;2022-10-17T13:39:42;23.10;99.90
49729;DHT22;35617;50.714;7.114;2022-10-17T13:42:27;23.10;99.90
49729;DHT22;35617;50.714;7.114;2022-10-17T13:44:53;23.10;99.90
49729;DHT22;35617;50.714;7.114;2022-10-17T13:47:23;23.10;99.90
49729;DHT22;35617;50.714;7.114;2022-10-17T13:49:49;23.10;99.90
49729;DHT22;35617;50.714;7.114;2022-10-17T13:52:22;23.10;99.90
49729;DHT22;35617;50.714;7.114;2022-10-17T13:54:50;23.10;99.90
49729;DHT22;35617;50.714;7.114;2022-10-17T13:57:27;23.00;99.90
49729;DHT22;35617;50.714;7.114;2022-10-17T14:00:02;23.00;99.90
49729;DHT22;35617;50.714;7.114;2022-10-17T14:02:31;23.00;99.90
49729;DHT22;35617;50.714;7.114;2022-10-17T14:05:19;23.00;99.90
49729;DHT22;35617;50.714;7.114;2022-10-17T14:07:50;23.00;99.90
49729;DHT22;35617;50.714;7.114;2022-10-17T14:10:37;23.00;99.90
49729;DHT22;35617;50.714;7.114;2022-10-17T14:13:05;23.00;99.90
49729;DHT22;35617;50.714;7.114;2022-10-17T14:15:34;23.00;99.90
49729;DHT22;35617;50.714;7.114;2022-10-17T14:18:05;23.10;99.90
49729;DHT22;35617;50.714;7.114;2022-10-17T14:20:32;23.10;99.90
49729;DHT22;35617;50.714;7.114;2022-10-17T14:22:58;23.10;99.90
49729;DHT22;35617;50.714;7.114;2022-10-17T14:25:39;23.10;99.90
49729;DHT22;35617;50.714;7.114;2022-10-17T14:30:38;23.30;99.90
49729;DHT22;35617;50.714;7.114;2022-10-17T14:33:07;23.20;99.90
49729;DHT22;35617;50.714;7.114;2022-10-17T14:35:36;23.30;99.90
49729;DHT22;35617;50.714;7.114;2022-10-17T14:38:05;23.30;99.90
49729;DHT22;35617;50.714;7.114;2022-10-17T14:40:32;23.30;99.90
49729;DHT22;35617;50.714;7.114;2022-10-17T14:43:04;23.30;99.90
49729;DHT22;35617;50.714;7.114;2022-10-17T14:45:36;23.30;99.90
49729;DHT22;35617;50.714;7.114;2022-10-17T14:48:10;23.30;99.90
49729;DHT22;35617;50.714;7.114;2022-10-17T14:50:37;23.30;99.90
49729;DHT22;35617;50.714;7.114;2022-10-17T14:55:30;23.20;99.90
49729;DHT22;35617;50.714;7.114;2022-10-17T14:57:56;23.20;99.90
49729;DHT22;35617;50.714;7.114;2022-10-17T15:00:22;23.10;99.90
49729;DHT22;35617;50.714;7.114;2022-10-17T15:02:50;23.10;99.90
49729;DHT22;35617;50.714;7.114;2022-10-17T15:05:16;23.10;99.90
49729;DHT22;35617;50.714;7.114;2022-10-17T15:07:42;23.10;99.90
49729;DHT22;35617;50.714;7.114;2022-10-17T15:12:52;22.90;96.80
49729;DHT22;35617;50.714;7.114;2022-10-17T15:15:17;22.90;96.90
49729;DHT22;35617;50.714;7.114;2022-10-17T15:17:43;22.80;96.90
49729;DHT22;35617;50.714;7.114;2022-10-17T15:20:13;22.80;96.90
49729;DHT22;35617;50.714;7.114;2022-10-17T15:22:40;22.80;96.70
49729;DHT22;35617;50.714;7.114;2022-10-17T15:25:06;22.80;96.30
49729;DHT22;35617;50.714;7.114;2022-10-17T15:27:32;22.80;96.40
49729;DHT22;35617;50.714;7.114;2022-10-17T15:29:57;22.70;96.30
49729;DHT22;35617;50.714;7.114;2022-10-17T15:32:23;22.70;96.60
49729;DHT22;35617;50.714;7.114;2022-10-17T15:34:48;22.70;96.60
49729;DHT22;35617;50.714;7.114;2022-10-17T15:39:42;22.70;97.00
49729;DHT22;35617;50.714;7.114;2022-10-17T15:42:10;22.60;97.00
49729;DHT22;35617;50.714;7.114;2022-10-17T15:44:36;22.60;97.00
49729;DHT22;35617;50.714;7.114;2022-10-17T15:47:02;22.60;97.30
49729;DHT22;35617;50.714;7.114;2022-10-17T15:49:28;22.50;97.60
49729;DHT22;35617;50.714;7.114;2022-10-17T15:51:53;22.50;97.90
49729;DHT22;35617;50.714;7.114;2022-10-17T15:54:19;22.50;98.20
49729;DHT22;35617;50.714;7.114;2022-10-17T15:56:51;22.40;98.90
49729;DHT22;35617;50.714;7.114;2022-10-17T15:59:21;22.30;99.50
49729;DHT22;35617;50.714;7.114;2022-10-17T16:01:49;22.30;99.80
49729;DHT22;35617;50.714;7.114;2022-10-17T16:04:15;22.20;99.90
49729;DHT22;35617;50.714;7.114;2022-10-17T16:06:41;22.20;99.90
49729;DHT22;35617;50.714;7.114;2022-10-17T16:09:07;22.20;99.90
49729;DHT22;35617;50.714;7.114;2022-10-17T16:11:38;22.10;99.90
49729;DHT22;35617;50.714;7.114;2022-10-17T16:14:10;22.00;99.90
49729;DHT22;35617;50.714;7.114;2022-10-17T16:16:36;22.00;99.90
49729;DHT22;35617;50.714;7.114;2022-10-17T16:19:02;22.00;99.90
49729;DHT22;35617;50.714;7.114;2022-10-17T16:21:30;22.00;99.70
49729;DHT22;35617;50.714;7.114;2022-10-17T16:23:57;21.90;99.50
49729;DHT22;35617;50.714;7.114;2022-10-17T16:26:23;21.90;99.70
49729;DHT22;35617;50.714;7.114;2022-10-17T16:28:49;21.90;99.50
49729;DHT22;35617;50.714;7.114;2022-10-17T16:31:19;21.80;99.90
49729;DHT22;35617;50.714;7.114;2022-10-17T16:33:46;21.80;99.90
49729;DHT22;35617;50.714;7.114;2022-10-17T16:36:12;21.70;99.90
49729;DHT22;35617;50.714;7.114;2022-10-17T16:38:38;21.70;99.90
49729;DHT22;35617;50.714;7.114;2022-10-17T16:41:12;21.70;99.90
49729;DHT22;35617;50.714;7.114;2022-10-17T16:43:38;21.60;99.90
49729;DHT22;35617;50.714;7.114;2022-10-17T16:46:04;21.60;99.90
49729;DHT22;35617;50.714;7.114;2022-10-17T16:48:30;21.50;99.90
49729;DHT22;35617;50.714;7.114;2022-10-17T16:50:55;21.50;99.90
49729;DHT22;35617;50.714;7.114;2022-10-17T16:53:21;21.50;99.90
49729;DHT22;35617;50.714;7.114;2022-10-17T16:55:58;21.40;99.90
49729;DHT22;35617;50.714;7.114;2022-10-17T16:58:24;21.50;99.90
49729;DHT22;35617;50.714;7.114;2022-10-17T17:00:51;21.40;99.90
49729;DHT22;35617;50.714;7.114;2022-10-17T17:03:18;21.30;99.90
49729;DHT22;35617;50.714;7.114;2022-10-17T17:05:49;21.30;99.90
49729;DHT22;35617;50.714;7.114;2022-10-17T17:08:16;21.30;99.90
49729;DHT22;35617;50.714;7.114;2022-10-17T17:10:45;21.20;99.90
49729;DHT22;35617;50.714;7.114;2022-10-17T17:13:11;21.20;99.90
49729;DHT22;35617;50.714;7.114;2022-10-17T17:15:36;21.10;99.90
49729;DHT22;35617;50.714;7.114;2022-10-17T17:18:03;21.10;99.90
49729;DHT22;35617;50.714;7.114;2022-10-17T17:20:28;21.00;99.90
49729;DHT22;35617;50.714;7.114;2022-10-17T17:22:54;21.00;99.90
49729;DHT22;35617;50.714;7.114;2022-10-17T17:25:21;21.00;99.90
49729;DHT22;35617;50.714;7.114;2022-10-17T17:27:47;21.00;99.90
49729;DHT22;35617;50.714;7.114;2022-10-17T17:30:15;20.90;99.90
49729;DHT22;35617;50.714;7.114;2022-10-17T17:32:41;20.90;99.90
49729;DHT22;35617;50.714;7.114;2022-10-17T17:35:07;20.90;99.90
49729;DHT22;35617;50.714;7.114;2022-10-17T17:37:33;20.90;99.90
49729;DHT22;35617;50.714;7.114;2022-10-17T17:39:58;20.80;99.90